Durango Ski Resort, Colorado Weather observations

Data are for observation ending at time listed.
 Day   Time    Ave.   Ave.  Ave.  Vector   Max.    Total    Solar   Ave.  
  of    of     Air    Rel.  Wind   Wind    Wind   Precip.   Rad.    Soil  
Year   Day     Temp.  Hum.  Speed  Dir.    Gust                     Temp. 
2014   (PST)    F      %     mph   deg.    mph      in.     W/m2     F   
------------------------------------------------------------------------------
 352   14:50   17.3    93    3.3   286      5.7    99999.00   99999    99999.0
 352   15:00   17.7    93    0.3   286      3.5    99999.00   99999    99999.0
 352   15:10   18.2    92    0.7   286      3.9    99999.00   99999    99999.0
 352   15:20   17.3    94    0.0     0      0.0    99999.00   99999    99999.0
 352   15:30   17.0    95    0.0     0      0.0    99999.00   99999    99999.0
 352   15:40   16.7    95    0.0     0      0.0    99999.00   99999    99999.0
 352   15:50   16.4    97    0.0     0      0.0    99999.00   99999    99999.0
 352   16:00   16.3    97    0.0     0      0.0    99999.00   99999    99999.0
 352   16:10   16.2    97    0.0     0      0.0    99999.00   99999    99999.0
 352   16:20   16.0    98    2.7   294      6.9    99999.00   99999    99999.0
 352   16:30   15.8    98    4.2   294      6.5    99999.00   99999    99999.0
 352   16:40   15.5    98    0.8   294      4.8    99999.00   99999    99999.0
 352   16:50   15.7    98    1.0   294      4.4    99999.00   99999    99999.0
 352   17:00   15.7    97    0.0     0      0.0    99999.00   99999    99999.0
 352   17:10   15.5    96    0.0     0      0.0    99999.00   99999    99999.0
 352   17:20   15.0    96    0.0     0      0.0    99999.00   99999    99999.0
 352   17:30   15.0    95    0.1   312      3.5    99999.00   99999    99999.0
 352   17:40   14.8    94    0.5   312      3.9    99999.00   99999    99999.0
 352   17:50   14.3    95    0.0     0      0.0    99999.00   99999    99999.0
 352   18:00   14.0    94    0.1   311      3.9    99999.00   99999    99999.0
 352   18:10   14.3    93    0.7   311      4.8    99999.00   99999    99999.0
 352   18:20   14.2    93    0.5   311      4.4    99999.00   99999    99999.0
 352   18:30   13.9    93    0.0     0      0.0    99999.00   99999    99999.0
 352   18:40   13.9    91    0.2   313      3.5    99999.00   99999    99999.0
 352   18:50   13.6    91    0.0     0      0.0    99999.00   99999    99999.0
 352   19:00   13.7    91    0.0     0      0.0    99999.00   99999    99999.0
 352   19:10   13.7    91    0.0     0      0.0    99999.00   99999    99999.0
 352   19:20   13.6    91    0.1    17      3.5    99999.00   99999    99999.0
 352   19:30   13.6    90    0.0     0      0.0    99999.00   99999    99999.0
 352   19:40   13.2    90    0.2    17      3.5    99999.00   99999    99999.0
 352   19:50   13.0    90    3.2    35      6.9    99999.00   99999    99999.0
 352   20:00   13.0    88    3.3    68      6.9    99999.00   99999    99999.0
 352   20:10   12.8    89    0.0     0      0.0    99999.00   99999    99999.0
 352   20:20   12.7    89    0.1    68      3.5    99999.00   99999    99999.0
 352   20:30   12.4    89    0.0    55      3.1    99999.00   99999    99999.0
 352   20:40   12.3    89    0.4    55      3.9    99999.00   99999    99999.0
 352   20:50   12.0    90    0.0    55      3.1    99999.00   99999    99999.0
 352   21:00   11.8    90    2.6    29      6.1    99999.00   99999    99999.0
 352   21:10   11.8    90    0.8    26      4.4    99999.00   99999    99999.0
 352   21:20   11.9    91    1.5    39      5.2    99999.00   99999    99999.0
 352   21:30   12.1    89    3.0    81      5.2    99999.00   99999    99999.0
 352   21:40   12.2    89    0.2    81      3.9    99999.00   99999    99999.0
 352   21:50   11.9    88    4.2    81      9.1    99999.00   99999    99999.0
 352   22:00   11.9    87    4.9    74      7.4    99999.00   99999    99999.0
 352   22:10   11.6    88    0.7    74      4.4    99999.00   99999    99999.0
 352   22:20   11.6    88    0.1    73      3.1    99999.00   99999    99999.0
 352   22:30   12.0    86    0.0     0      0.0    99999.00   99999    99999.0
 352   22:40   12.3    86    0.0     0      0.0    99999.00   99999    99999.0
 352   22:50   12.2    88    1.7     0      4.8    99999.00   99999    99999.0
 352   23:00   12.7    86    1.9     0      4.8    99999.00   99999    99999.0
 352   23:10   13.1    84    3.4     0      4.4    99999.00   99999    99999.0
 352   23:20   13.3    81    0.8     0      4.4    99999.00   99999    99999.0
 352   23:30   13.4    80    0.0     0      3.1    99999.00   99999    99999.0
 352   23:40   13.6    80    0.0     0      0.0    99999.00   99999    99999.0
 352   23:50   13.9    80    0.0     0      0.0    99999.00   99999    99999.0
 353    0:00   13.7    81    0.0     0      0.0    99999.00   99999    99999.0
 353    0:10   13.6    80    0.0     0      0.0    99999.00   99999    99999.0
 353    0:20   13.6    80    0.0     0      0.0    99999.00   99999    99999.0
 353    0:30   13.4    79    0.0     0      0.0    99999.00   99999    99999.0
 353    0:40   13.5    77    0.0     0      0.0    99999.00   99999    99999.0
 353    0:50   13.9    74    0.0     0      0.0    99999.00   99999    99999.0
 353    1:00   13.9    74    0.0     0      0.0    99999.00   99999    99999.0
 353    1:10   13.9    74    0.0     0      0.0    99999.00   99999    99999.0
 353    1:20   14.2    74    0.0     0      0.0    99999.00   99999    99999.0
 353    1:30   14.0    75    0.0     0      0.0    99999.00   99999    99999.0
 353    1:40   13.5    75    0.0     0      0.0    99999.00   99999    99999.0
 353    1:50   13.6    73    0.0     0      0.0    99999.00   99999    99999.0
 353    2:00   13.6    73    0.0     0      0.0    99999.00   99999    99999.0
 353    2:10   13.6    72    0.0     0      0.0    99999.00   99999    99999.0
 353    2:20   13.3    72    0.0     0      0.0    99999.00   99999    99999.0
 353    2:30   13.0    73    0.0     0      0.0    99999.00   99999    99999.0
 353    2:40   13.4    70    1.8    53      4.8    99999.00   99999    99999.0
 353    2:50   14.1    69    0.0     0      0.0    99999.00   99999    99999.0
 353    3:00   14.1    69    0.0     0      0.0    99999.00   99999    99999.0
 353    3:10   13.8    69    0.0     0      0.0    99999.00   99999    99999.0
 353    3:20   13.8    69    0.0     0      0.0    99999.00   99999    99999.0
 353    3:30   13.7    69    0.0     0      0.0    99999.00   99999    99999.0
 353    3:40   13.5    69    0.0     0      0.0    99999.00   99999    99999.0
 353    3:50   13.4    70    0.0     0      0.0    99999.00   99999    99999.0
 353    4:00   13.6    69    0.0     0      0.0    99999.00   99999    99999.0
 353    4:10   13.7    69    0.0     0      0.0    99999.00   99999    99999.0
 353    4:20   13.6    68    0.0     0      0.0    99999.00   99999    99999.0
 353    4:30   13.5    68    0.0     0      0.0    99999.00   99999    99999.0
 353    4:40   13.5    68    0.0     0      0.0    99999.00   99999    99999.0
 353    4:50   13.8    65    0.0     0      0.0    99999.00   99999    99999.0
 353    5:00   13.6    67    0.0     0      0.0    99999.00   99999    99999.0
 353    5:10   12.7    71    0.0     0      0.0    99999.00   99999    99999.0
 353    5:20   12.8    70    0.0     0      0.0    99999.00   99999    99999.0
 353    5:30   12.8    68    0.0     0      0.0    99999.00   99999    99999.0
 353    5:40   12.7    68    0.0     0      0.0    99999.00   99999    99999.0
 353    5:50   12.7    68    0.0     0      0.0    99999.00   99999    99999.0
 353    6:00   12.8    67    0.0     0      0.0    99999.00   99999    99999.0
 353    6:10   12.5    68    3.9   319      7.4    99999.00   99999    99999.0
 353    6:20   13.0    65    3.9   338      7.4    99999.00   99999    99999.0
 353    6:30   12.8    65    1.7   339      4.8    99999.00   99999    99999.0
 353    6:40   13.6    64    0.0     0      0.0    99999.00   99999    99999.0
 353    6:50   14.7    60    0.0     0      0.0    99999.00   99999    99999.0
 353    7:00   15.8    55    0.0     0      0.0    99999.00   99999    99999.0
 353    7:10   16.0    53    1.6    31      5.2    99999.00   99999    99999.0
 353    7:20   16.0    55    0.0     0      0.0    99999.00   99999    99999.0
 353    7:30   16.2    54    0.0     0      0.0    99999.00   99999    99999.0
 353    7:40   18.0    49    0.0     0      0.0    99999.00   99999    99999.0
 353    7:50   17.6    48    0.0     0      0.0    99999.00   99999    99999.0
 353    8:00   18.8    46    0.0     0      0.0    99999.00   99999    99999.0
 353    8:10   21.6    45    0.0     0      0.0    99999.00   99999    99999.0
 353    8:20   19.2    50    2.0   313      7.4    99999.00   99999    99999.0
 353    8:30   17.3    53    4.7   302      7.8    99999.00   99999    99999.0
 353    8:40   17.3    56    6.2   306     10.8    99999.00   99999    99999.0
 353    8:50   17.5    57    3.1   289      6.9    99999.00   99999    99999.0
 353    9:00   18.6    54    2.4   298     10.8    99999.00   99999    99999.0
 353    9:10   17.6    56    5.3   299      8.2    99999.00   99999    99999.0
 353    9:20   17.8    55    5.8   306      8.2    99999.00   99999    99999.0
 353    9:30   18.0    54    3.6   294      8.2    99999.00   99999    99999.0
 353    9:40   19.1    54    1.4   283      5.2    99999.00   99999    99999.0
 353    9:50   20.8    52    1.4   286      6.5    99999.00   99999    99999.0
 353   10:00   19.5    54    2.6   309      8.2    99999.00   99999    99999.0
 353   10:10   19.1    56    3.3   323      6.9    99999.00   99999    99999.0
 353   10:20   20.0    54    1.3   306      5.2    99999.00   99999    99999.0
 353   10:30   20.0    53    1.8   311      6.5    99999.00   99999    99999.0
 353   10:40   20.2    53    4.4   297      8.6    99999.00   99999    99999.0
 353   10:50   20.3    54    4.4   318      7.8    99999.00   99999    99999.0
 353   11:00   21.4    47    2.2   322      5.2    99999.00   99999    99999.0
 353   11:10   22.6    47    1.0   322      6.5    99999.00   99999    99999.0
 353   11:20   22.3    48    1.5   322      5.7    99999.00   99999    99999.0
 353   11:30   22.4    49    1.2   322      6.1    99999.00   99999    99999.0
 353   11:40   22.7    50    0.9   340      5.2    99999.00   99999    99999.0
 353   11:50   22.3    50    1.6   329      7.8    99999.00   99999    99999.0
 353   12:00   22.8    50    2.2   326      5.7    99999.00   99999    99999.0
 353   12:10   23.2    53    1.7    20      4.8    99999.00   99999    99999.0
 353   12:20   23.8    49    0.5   359      4.8    99999.00   99999    99999.0
 353   12:30   23.6    51    0.4   327      4.8    99999.00   99999    99999.0
 353   12:40   23.5    51    0.0     0      0.0    99999.00   99999    99999.0
 353   12:50   23.7    46    0.0     0      0.0    99999.00   99999    99999.0
 353   13:00   23.7    47    5.0   323      9.9    99999.00   99999    99999.0
 353   13:10   23.8    45    7.0   316     11.2    99999.00   99999    99999.0
 353   13:20   24.0    44    4.3   303      8.6    99999.00   99999    99999.0
 353   13:30   26.6    39    0.0     0      0.0    99999.00   99999    99999.0
 353   13:40   24.7    43    3.4   316      6.5    99999.00   99999    99999.0
 353   13:50   24.8    43    2.3   315      8.2    99999.00   99999    99999.0
 353   14:00   24.5    46    1.0   314      4.4    99999.00   99999    99999.0
 353   14:10   24.3    44    3.1   314      6.1    99999.00   99999    99999.0
 353   14:20   24.6    44    0.6   314      4.4    99999.00   99999    99999.0
 353   14:30   23.8    46    2.8   314      4.8    99999.00   99999    99999.0
 353   14:40   23.6    48    2.2   314      6.9    99999.00   99999    99999.0

Return to Durango Ski Resort, Colorado graphs page.


Western Regional Climate Center,wrcc@dri.edu